Time;durP1;ratioP1;P1;durP2;ratioP2;P2;SDS_P1;SDS_P2;PMS_P1;PMS_P2;Temp;Humidity;BMP_temperature;BMP_pressure;BME280_temperature;BME280_humidity;BME280_pressure;Samples;Min_cycle;Max_cycle;Signal;HPM_P1;HPM_P2
2022/09/04 00:02:22;;;;;;;6.20;3.47;;;;;;;14.89;100.00;98703.78;5003394;28;20080;-61
2022/09/04 00:05:07;;;;;;;6.47;3.42;;;;;;;14.79;100.00;98695.34;4989672;28;20033;-61
2022/09/04 00:08:03;;;;;;;4.43;3.05;;;;;;;14.73;100.00;98698.19;4986810;28;20080;-60
2022/09/04 00:10:29;;;;;;;4.38;3.03;;;;;;;14.67;100.00;98708.97;5007548;28;20042;-61
2022/09/04 00:13:26;;;;;;;4.57;3.20;;;;;;;14.60;100.00;98699.22;4989430;28;20040;-61
2022/09/04 00:16:04;;;;;;;6.00;3.03;;;;;;;14.54;100.00;98703.72;5005240;28;20030;-60
2022/09/04 00:18:32;;;;;;;4.45;3.10;;;;;;;14.54;100.00;98706.44;4987778;28;20057;-60
2022/09/04 00:21:25;;;;;;;3.85;2.78;;;;;;;14.45;100.00;98694.16;4987679;28;20021;-60
2022/09/04 00:23:57;;;;;;;4.05;2.90;;;;;;;14.41;100.00;98703.88;4990328;28;20033;-61
2022/09/04 00:26:37;;;;;;;4.25;2.90;;;;;;;14.36;100.00;98709.16;4991319;28;20450;-61
2022/09/04 00:29:51;;;;;;;5.60;3.00;;;;;;;14.41;100.00;98698.41;5002276;28;20030;-61
2022/09/04 00:32:53;;;;;;;3.58;2.70;;;;;;;14.44;100.00;98697.94;4923036;29;20211;-61
2022/09/04 00:35:39;;;;;;;4.18;2.40;;;;;;;14.40;100.00;98705.72;4988728;28;20029;-61
2022/09/04 00:38:24;;;;;;;5.30;3.00;;;;;;;14.38;100.00;98698.84;4988380;28;20022;-61
2022/09/04 00:41:14;;;;;;;6.88;3.08;;;;;;;14.43;100.00;98704.44;4984920;28;20084;-60
2022/09/04 00:43:55;;;;;;;3.17;2.50;;;;;;;14.35;100.00;98711.03;4952783;28;20034;-61
2022/09/04 00:46:50;;;;;;;3.72;2.75;;;;;;;14.29;100.00;98716.59;4992514;28;20084;-64
2022/09/04 00:49:16;;;;;;;5.50;2.90;;;;;;;14.22;100.00;98714.75;5007234;28;20423;-65
2022/09/04 00:52:31;;;;;;;5.55;3.28;;;;;;;14.27;100.00;98713.25;4990511;28;20073;-60
2022/09/04 00:54:59;;;;;;;9.20;3.53;;;;;;;14.19;100.00;98715.22;4986973;28;21274;-64
2022/09/04 00:57:49;;;;;;;5.07;3.05;;;;;;;14.19;100.00;98712.50;4988775;28;20117;-61
2022/09/04 01:00:20;;;;;;;8.73;3.70;;;;;;;14.19;100.00;98712.50;5004428;28;20033;-61
2022/09/04 01:03:14;;;;;;;7.00;3.10;;;;;;;14.18;100.00;98727.19;4990894;28;20473;-61
2022/09/04 01:06:06;;;;;;;4.97;3.30;;;;;;;14.13;100.00;98729.75;4998577;28;20042;-60
2022/09/04 01:08:52;;;;;;;4.28;3.17;;;;;;;14.08;100.00;98731.50;5006815;28;20647;-60
2022/09/04 01:11:43;;;;;;;3.90;3.00;;;;;;;13.99;100.00;98733.66;5006765;28;20029;-61
2022/09/04 01:14:54;;;;;;;7.95;3.55;;;;;;;14.00;100.00;98741.63;4988341;28;20081;-61
2022/09/04 01:17:22;;;;;;;8.05;4.93;;;;;;;14.03;100.00;98741.16;4969424;28;20033;-60
2022/09/04 01:19:52;;;;;;;6.68;4.18;;;;;;;14.18;100.00;98739.97;4998897;28;20033;-63
2022/09/04 01:22:40;;;;;;;5.32;3.45;;;;;;;14.10;100.00;98749.25;4989109;28;20034;-61
2022/09/04 01:25:33;;;;;;;4.85;3.00;;;;;;;14.23;100.00;98746.38;4992944;28;20165;-61
2022/09/04 01:28:07;;;;;;;4.88;3.40;;;;;;;14.26;100.00;98750.53;4982490;28;20543;-64
2022/09/04 01:30:49;;;;;;;8.45;3.65;;;;;;;14.32;100.00;98755.03;4988031;28;20432;-61
2022/09/04 01:33:22;;;;;;;6.00;3.40;;;;;;;14.20;100.00;98757.72;4990462;28;20482;-61
2022/09/04 01:36:06;;;;;;;3.47;2.72;;;;;;;14.16;100.00;98755.66;4977613;28;20164;-61
2022/09/04 01:38:49;;;;;;;7.97;3.33;;;;;;;14.10;100.00;98757.41;4995639;28;20041;-61
2022/09/04 01:41:28;;;;;;;6.80;3.20;;;;;;;14.06;100.00;98758.91;4984576;28;20069;-60
2022/09/04 01:43:54;;;;;;;6.38;3.13;;;;;;;13.95;100.00;98756.97;4987040;28;20375;-61
2022/09/04 01:46:53;;;;;;;5.30;2.83;;;;;;;13.81;100.00;98759.81;4986846;28;20144;-60
2022/09/04 01:49:52;;;;;;;4.20;3.20;;;;;;;13.82;100.00;98753.31;4990805;28;20486;-61
2022/09/04 01:52:46;;;;;;;8.10;3.45;;;;;;;13.77;100.00;98760.50;4990289;28;20038;-61
2022/09/04 01:55:36;;;;;;;6.43;2.90;;;;;;;13.73;100.00;98762.84;4989366;28;20172;-61
2022/09/04 01:58:36;;;;;;;4.07;3.22;;;;;;;13.63;100.00;98767.97;5005986;28;20125;-61
2022/09/04 02:01:09;;;;;;;4.47;3.25;;;;;;;13.73;100.00;98765.56;4973898;28;20018;-60
2022/09/04 02:04:01;;;;;;;4.75;3.17;;;;;;;13.68;100.00;98767.28;4973765;28;20023;-61
2022/09/04 02:06:38;;;;;;;4.35;3.30;;;;;;;13.61;100.00;98758.38;5001193;28;20113;-61
2022/09/04 02:09:36;;;;;;;6.70;3.17;;;;;;;13.53;100.00;98759.47;4988661;28;20026;-61
2022/09/04 02:12:27;;;;;;;8.50;3.33;;;;;;;13.44;100.00;98763.53;4986483;28;20037;-61
2022/09/04 02:15:14;;;;;;;8.70;4.00;;;;;;;13.40;100.00;98776.72;4981379;28;20437;-60
2022/09/04 02:18:15;;;;;;;5.03;3.47;;;;;;;13.46;100.00;98775.00;5006487;28;20176;-61
2022/09/04 02:20:51;;;;;;;6.97;2.83;;;;;;;13.34;100.00;98772.19;4945670;28;20030;-61
2022/09/04 02:23:34;;;;;;;3.85;2.80;;;;;;;13.27;100.00;98780.38;4978015;28;20353;-61
2022/09/04 02:26:19;;;;;;;4.18;2.45;;;;;;;13.10;100.00;98773.81;4999722;28;20033;-61
2022/09/04 02:29:22;;;;;;;6.05;2.45;;;;;;;13.01;100.00;98777.84;5001463;28;20349;-61
2022/09/04 02:32:06;;;;;;;5.68;2.53;;;;;;;12.90;100.00;98776.66;4954504;28;20042;-61
2022/09/04 02:34:50;;;;;;;4.93;2.53;;;;;;;12.89;100.00;98778.56;4986584;28;20034;-61
2022/09/04 02:37:26;;;;;;;4.22;2.80;;;;;;;13.04;100.00;98782.84;4990674;28;20026;-61
2022/09/04 02:40:50;;;;;;;6.38;3.05;;;;;;;13.09;100.00;98783.00;4988151;28;20025;-61
2022/09/04 02:43:18;;;;;;;4.80;2.95;;;;;;;12.99;100.00;98780.75;4911970;29;20524;-62
2022/09/04 02:45:54;;;;;;;4.10;2.78;;;;;;;12.98;100.00;98783.72;4926183;29;20126;-61
2022/09/04 02:48:54;;;;;;;4.10;2.53;;;;;;;12.93;100.00;98792.53;4972850;28;20045;-61
2022/09/04 02:52:00;;;;;;;4.18;2.72;;;;;;;12.87;100.00;98787.97;4989035;28;20041;-61
2022/09/04 02:54:38;;;;;;;5.85;3.10;;;;;;;12.87;100.00;98794.22;4987541;28;20545;-60
2022/09/04 02:57:39;;;;;;;3.42;2.33;;;;;;;12.88;100.00;98793.16;5003222;28;20385;-61
2022/09/04 03:00:18;;;;;;;3.65;2.38;;;;;;;12.85;100.00;98793.59;5004525;28;20096;-61
2022/09/04 03:03:14;;;;;;;3.97;2.70;;;;;;;12.88;100.00;98793.16;5004720;28;20484;-60
2022/09/04 03:05:57;;;;;;;3.42;2.42;;;;;;;12.85;100.00;98793.59;4985610;28;20048;-61
2022/09/04 03:08:35;;;;;;;3.35;2.45;;;;;;;12.78;100.00;98778.41;4990222;28;20489;-61
2022/09/04 03:11:10;;;;;;;4.22;2.53;;;;;;;12.80;100.00;98787.16;4988941;28;20486;-60
2022/09/04 03:14:05;;;;;;;4.50;2.45;;;;;;;12.70;100.00;98795.78;4995010;28;20056;-62
2022/09/04 03:16:43;;;;;;;3.40;2.33;;;;;;;12.69;100.00;98794.13;4984855;28;20022;-61
2022/09/04 03:19:32;;;;;;;4.03;2.50;;;;;;;12.82;100.00;98793.22;4980685;28;20172;-61
2022/09/04 03:22:23;;;;;;;4.75;2.53;;;;;;;12.80;100.00;98792.59;5003300;28;20037;-61
2022/09/04 03:25:22;;;;;;;4.15;2.83;;;;;;;12.76;100.00;98789.50;4988727;28;20267;-61
2022/09/04 03:27:48;;;;;;;4.47;2.90;;;;;;;12.70;100.00;98793.91;5008251;28;20018;-61
2022/09/04 03:30:14;;;;;;;6.15;2.58;;;;;;;12.75;100.00;98793.25;4988502;28;20411;-61
2022/09/04 03:32:55;;;;;;;7.97;3.00;;;;;;;12.78;100.00;98791.97;5003067;28;20038;-60
2022/09/04 03:35:23;;;;;;;5.63;2.55;;;;;;;12.77;100.00;98799.31;4986091;28;20037;-61
2022/09/04 03:38:19;;;;;;;5.53;2.80;;;;;;;12.87;100.00;98793.41;5004631;28;20048;-60
2022/09/04 03:40:56;;;;;;;4.43;2.72;;;;;;;12.82;100.00;98796.75;4981884;28;20103;-61
2022/09/04 03:43:40;;;;;;;4.18;2.70;;;;;;;12.72;100.00;98796.41;4988786;28;20180;-61
2022/09/04 03:46:14;;;;;;;3.80;2.80;;;;;;;12.72;100.00;98812.69;4982398;28;20371;-60
2022/09/04 03:49:09;;;;;;;6.20;3.08;;;;;;;12.60;100.00;98801.69;5000506;28;20018;-60
2022/09/04 03:51:44;;;;;;;4.88;2.83;;;;;;;12.53;100.00;98805.50;5004608;28;20032;-60
2022/09/04 03:54:34;;;;;;;5.65;2.90;;;;;;;12.45;100.00;98812.81;5006890;28;20038;-61
2022/09/04 03:57:06;;;;;;;4.82;3.15;;;;;;;12.45;100.00;98815.53;5004462;28;20041;-61
2022/09/04 04:00:04;;;;;;;6.72;3.58;;;;;;;12.45;100.00;98820.13;4991142;28;20026;-61
2022/09/04 04:02:29;;;;;;;5.17;2.67;;;;;;;12.50;100.00;98815.72;4991972;28;20038;-60
2022/09/04 04:04:55;;;;;;;5.07;3.20;;;;;;;12.39;100.00;98819.13;5008221;28;20179;-61
2022/09/04 04:07:57;;;;;;;4.65;2.10;;;;;;;12.32;100.00;98821.00;4992170;28;20052;-61
2022/09/04 04:10:32;;;;;;;3.92;2.30;;;;;;;12.26;100.00;98825.41;5016307;28;20065;-60
2022/09/04 04:13:25;;;;;;;8.30;3.20;;;;;;;12.32;100.00;98822.91;4988735;28;20034;-61
2022/09/04 04:16:10;;;;;;;5.57;3.30;;;;;;;12.27;100.00;98824.38;4988092;28;22588;-60
2022/09/04 04:18:42;;;;;;;3.97;2.88;;;;;;;12.27;100.00;98818.94;4991548;28;20121;-61
2022/09/04 04:21:10;;;;;;;3.53;2.60;;;;;;;12.25;100.00;98825.63;4988050;28;20056;-61
2022/09/04 04:24:01;;;;;;;5.45;2.30;;;;;;;12.19;100.00;98823.78;4993150;28;20036;-61
2022/09/04 04:27:02;;;;;;;3.38;2.35;;;;;;;12.21;100.00;98824.41;4996826;28;20041;-60
2022/09/04 04:29:52;;;;;;;3.17;2.42;;;;;;;12.20;100.00;98837.09;4992751;28;20062;-60
2022/09/04 04:32:51;;;;;;;3.47;2.60;;;;;;;12.21;100.00;98846.09;5009250;28;20062;-60
2022/09/04 04:35:17;;;;;;;3.40;2.40;;;;;;;12.20;100.00;98847.13;4985842;28;20034;-60
2022/09/04 04:37:58;;;;;;;2.75;2.20;;;;;;;12.17;100.00;98848.38;4989527;28;20026;-60
2022/09/04 04:40:31;;;;;;;4.13;2.28;;;;;;;12.24;100.00;98851.91;4989733;28;20025;-60
2022/09/04 04:43:15;;;;;;;9.38;2.65;;;;;;;12.26;100.00;98857.97;5006815;28;22158;-60
2022/09/04 04:45:53;;;;;;;3.38;2.25;;;;;;;12.30;100.00;98860.25;4985181;28;20441;-60
2022/09/04 04:48:37;;;;;;;2.50;2.03;;;;;;;12.30;100.00;98866.50;5005526;28;20030;-61
2022/09/04 04:51:11;;;;;;;2.85;2.30;;;;;;;12.45;100.00;98864.38;4990435;28;20362;-61
2022/09/04 04:54:14;;;;;;;3.70;2.17;;;;;;;12.41;100.00;98879.41;5004744;28;20125;-62
2022/09/04 04:56:49;;;;;;;3.53;2.30;;;;;;;12.43;100.00;98873.78;4989247;28;20030;-60
2022/09/04 04:59:26;;;;;;;3.03;2.05;;;;;;;12.46;100.00;98873.34;5001287;28;20100;-60
2022/09/04 05:02:08;;;;;;;4.43;1.83;;;;;;;12.52;100.00;98877.09;4991295;28;20032;-60
2022/09/04 05:04:52;;;;;;;2.33;1.67;;;;;;;12.56;100.00;98883.75;4987869;28;20033;-60
2022/09/04 05:07:41;;;;;;;1.58;1.40;;;;;;;12.63;100.00;98890.00;4990725;28;20042;-60
2022/09/04 05:10:17;;;;;;;1.10;1.00;;;;;;;12.70;100.00;98888.06;4994228;28;20033;-60
2022/09/04 05:12:42;;;;;;;1.85;1.17;;;;;;;12.76;100.00;98891.81;5007490;28;20112;-61
2022/09/04 05:15:36;;;;;;;1.80;1.30;;;;;;;12.84;100.00;98897.84;4991620;28;20129;-61
2022/09/04 05:18:27;;;;;;;1.50;1.23;;;;;;;12.96;100.00;98903.41;4988925;28;20077;-61
2022/09/04 05:21:06;;;;;;;2.30;1.50;;;;;;;13.10;100.00;98909.63;5005151;28;20163;-61
2022/09/04 05:23:57;;;;;;;2.67;1.63;;;;;;;13.21;100.00;98908.13;5008023;28;20037;-61
2022/09/04 05:26:35;;;;;;;3.65;1.63;;;;;;;13.30;100.00;98904.09;5009724;28;20095;-61
2022/09/04 05:29:24;;;;;;;2.83;1.83;;;;;;;13.41;100.00;98914.25;5004721;28;20030;-61
2022/09/04 05:31:57;;;;;;;3.85;2.10;;;;;;;13.66;100.00;98927.91;4991122;28;20121;-61
2022/09/04 05:34:50;;;;;;;3.88;2.10;;;;;;;14.07;100.00;98923.81;4990447;28;20038;-61
2022/09/04 05:37:26;;;;;;;2.40;1.80;;;;;;;15.68;100.00;98932.56;5001466;28;20029;-61
2022/09/04 05:40:20;;;;;;;6.05;2.13;;;;;;;17.81;100.00;98930.38;4999095;28;20092;-61
2022/09/04 05:43:10;;;;;;;3.15;1.80;;;;;;;19.56;87.20;98928.97;4989913;28;20482;-61
2022/09/04 05:45:44;;;;;;;2.72;2.05;;;;;;;21.12;77.35;98937.03;4990655;28;20026;-61
2022/09/04 05:48:21;;;;;;;3.88;1.92;;;;;;;21.37;71.14;98931.59;4984550;28;20045;-61
2022/09/04 05:51:00;;;;;;;7.07;2.47;;;;;;;21.99;66.57;98927.03;4982618;28;20042;-61
2022/09/04 05:53:28;;;;;;;3.42;1.98;;;;;;;22.17;66.05;98935.88;4984249;28;20033;-63
2022/09/04 05:56:24;;;;;;;5.40;2.10;;;;;;;22.45;67.15;98942.75;4984013;28;20044;-61
2022/09/04 05:59:21;;;;;;;2.72;1.70;;;;;;;23.11;64.45;98950.06;4988225;28;20057;-61
2022/09/04 06:02:15;;;;;;;4.20;1.67;;;;;;;23.93;57.92;98955.97;5002800;28;20725;-61
2022/09/04 06:05:05;;;;;;;3.45;2.40;;;;;;;24.30;56.02;98959.28;4998582;28;20171;-61
2022/09/04 06:07:57;;;;;;;3.40;1.90;;;;;;;25.25;55.20;98955.81;4992088;28;20030;-62
2022/09/04 06:10:59;;;;;;;5.65;2.20;;;;;;;24.30;56.64;98965.63;4989530;28;20053;-61
2022/09/04 06:14:00;;;;;;;2.40;1.80;;;;;;;22.48;66.92;98969.78;4974209;28;20136;-61
2022/09/04 06:16:51;;;;;;;4.18;1.60;;;;;;;23.58;61.92;98968.88;5006507;28;20168;-56
2022/09/04 06:19:43;;;;;;;2.13;1.50;;;;;;;24.58;57.10;98960.47;4983353;28;20631;-56
2022/09/04 06:22:22;;;;;;;2.95;1.85;;;;;;;26.11;53.46;98969.59;4987132;28;20454;-56
2022/09/04 06:25:12;;;;;;;2.85;1.63;;;;;;;26.97;51.69;98963.66;5004085;28;20034;-57
2022/09/04 06:27:47;;;;;;;1.98;1.77;;;;;;;28.31;48.08;98967.16;4999058;28;20069;-57
2022/09/04 06:30:15;;;;;;;5.40;2.85;;;;;;;27.95;47.60;98982.72;4990577;28;20061;-56
2022/09/04 06:33:02;;;;;;;5.03;2.80;;;;;;;27.73;48.10;98979.91;4986019;28;20104;-56
2022/09/04 06:35:52;;;;;;;3.72;2.58;;;;;;;28.61;45.80;98974.75;4987507;28;20049;-60
2022/09/04 06:38:20;;;;;;;4.90;2.50;;;;;;;27.90;46.47;98979.25;4988959;28;20025;-60
2022/09/04 06:40:54;;;;;;;6.45;2.30;;;;;;;29.01;44.60;98980.34;4991406;28;20030;-61
2022/09/04 06:43:39;;;;;;;3.85;1.90;;;;;;;28.34;46.13;98989.59;4989764;28;20049;-59
2022/09/04 06:46:34;;;;;;;2.38;1.65;;;;;;;28.24;46.30;99000.97;4985376;28;20034;-60
2022/09/04 06:49:22;;;;;;;2.92;1.70;;;;;;;28.71;46.69;98993.13;4985190;28;20049;-60
2022/09/04 06:52:02;;;;;;;1.92;1.60;;;;;;;29.73;43.87;98989.44;4987725;28;20037;-60
2022/09/04 06:54:44;;;;;;;1.90;1.45;;;;;;;29.76;43.92;98991.59;4986178;28;20052;-60
2022/09/04 06:57:12;;;;;;;1.88;1.38;;;;;;;30.55;43.08;98984.06;4985587;28;20033;-61
2022/09/04 06:59:47;;;;;;;2.53;1.90;;;;;;;31.07;41.32;98991.47;4990780;28;20437;-61
2022/09/04 07:02:25;;;;;;;2.47;1.45;;;;;;;31.71;40.39;98988.53;4991797;28;20489;-63
2022/09/04 07:04:56;;;;;;;2.00;1.27;;;;;;;31.40;40.92;98988.91;4987759;28;20029;-61
2022/09/04 07:07:37;;;;;;;3.67;1.40;;;;;;;31.71;40.09;98999.72;4988157;28;20359;-61
2022/09/04 07:10:17;;;;;;;1.92;1.58;;;;;;;33.41;37.57;98999.13;4988874;28;20072;-62
2022/09/04 07:13:16;;;;;;;3.65;1.55;;;;;;;31.67;40.71;98999.56;5002956;28;20034;-61
2022/09/04 07:15:47;;;;;;;2.20;1.20;;;;;;;31.96;39.43;99000.72;4985557;28;20029;-62
2022/09/04 07:18:31;;;;;;;1.55;1.45;;;;;;;33.10;36.92;99012.53;4983718;28;20026;-61
2022/09/04 07:21:29;;;;;;;1.80;1.30;;;;;;;32.96;37.57;99004.41;4984343;28;20053;-61
2022/09/04 07:24:32;;;;;;;1.30;1.20;;;;;;;33.65;36.91;99013.16;5003527;28;20034;-61
2022/09/04 07:27:11;;;;;;;4.05;1.23;;;;;;;33.96;36.64;99017.31;4990332;28;20041;-61
2022/09/04 07:30:04;;;;;;;2.20;1.60;;;;;;;33.69;36.48;99016.88;5002127;28;20026;-61
2022/09/04 07:32:44;;;;;;;3.33;1.45;;;;;;;34.96;34.48;99019.41;4982481;28;20037;-61
2022/09/04 07:35:22;;;;;;;2.45;1.38;;;;;;;33.04;37.99;99015.88;4990989;28;20037;-61
2022/09/04 07:38:06;;;;;;;1.70;1.40;;;;;;;33.24;38.01;99017.78;4986231;28;20080;-61
2022/09/04 07:40:38;;;;;;;1.70;1.40;;;;;;;33.78;36.49;99013.94;4994265;28;20574;-61
2022/09/04 07:43:20;;;;;;;2.88;1.30;;;;;;;34.19;37.20;99015.66;4996101;28;20095;-61
2022/09/04 07:45:53;;;;;;;2.95;1.42;;;;;;;33.29;37.95;99025.97;5012249;28;20029;-61
2022/09/04 07:48:42;;;;;;;2.38;1.60;;;;;;;33.48;37.38;99025.38;5006421;28;20328;-61
2022/09/04 07:51:13;;;;;;;2.55;1.50;;;;;;;33.58;37.52;99008.13;4995295;28;20044;-60
2022/09/04 07:53:42;;;;;;;2.15;1.75;;;;;;;34.38;36.47;99017.78;5001756;28;20022;-60
2022/09/04 07:56:48;;;;;;;2.72;1.48;;;;;;;35.67;34.42;99018.44;5004874;28;20022;-61
2022/09/04 07:59:44;;;;;;;2.05;1.80;;;;;;;34.43;35.71;99023.16;5002220;28;20038;-61
2022/09/04 08:02:35;;;;;;;2.53;2.00;;;;;;;34.92;34.93;99019.28;4991544;28;20055;-61
2022/09/04 08:05:26;;;;;;;2.00;1.73;;;;;;;34.84;35.14;99029.53;4993082;28;20141;-61
2022/09/04 08:08:15;;;;;;;1.83;1.55;;;;;;;33.67;37.71;99036.06;5002029;28;20033;-61
2022/09/04 08:11:01;;;;;;;3.40;1.67;;;;;;;34.52;36.14;99034.25;4982069;28;20176;-61
2022/09/04 08:14:17;;;;;;;3.05;1.92;;;;;;;33.89;36.73;99045.97;4991882;28;20033;-61
2022/09/04 08:17:24;;;;;;;2.00;1.60;;;;;;;32.97;38.52;99048.09;4931367;28;20030;-61
2022/09/04 08:19:53;;;;;;;2.33;1.42;;;;;;;33.54;37.10;99049.28;4987243;28;20034;-60
2022/09/04 08:22:51;;;;;;;1.38;1.25;;;;;;;34.09;36.38;99061.06;4988295;28;20029;-60
2022/09/04 08:26:12;;;;;;;2.05;1.60;;;;;;;34.43;35.92;99053.25;4991149;28;20035;-62
2022/09/04 08:29:01;;;;;;;2.10;1.60;;;;;;;36.28;33.64;99052.81;4985494;28;20477;-62
2022/09/04 08:31:45;;;;;;;2.10;1.50;;;;;;;34.48;36.03;99056.63;5003027;28;20038;-62
2022/09/04 08:34:17;;;;;;;1.70;1.60;;;;;;;35.03;35.22;99061.75;4987199;28;20030;-62
2022/09/04 08:36:53;;;;;;;2.47;1.70;;;;;;;35.12;35.13;99073.69;4993750;28;20037;-62
2022/09/04 08:39:52;;;;;;;5.57;1.52;;;;;;;34.95;35.52;99062.75;4988507;28;20037;-62
2022/09/04 08:42:55;;;;;;;2.75;1.20;;;;;;;36.07;33.73;99067.22;4990965;28;20537;-62
2022/09/04 08:45:31;;;;;;;2.03;1.20;;;;;;;36.22;34.15;99071.19;5007301;28;20083;-62
2022/09/04 08:48:29;;;;;;;3.55;1.38;;;;;;;36.50;33.00;99076.59;4991186;28;20057;-62
2022/09/04 08:51:01;;;;;;;2.25;1.10;;;;;;;36.68;32.63;99069.41;4983916;28;20046;-64
2022/09/04 08:53:44;;;;;;;2.00;1.20;;;;;;;36.11;33.54;99077.41;4976295;28;20041;-62
2022/09/04 08:56:35;;;;;;;1.70;1.05;;;;;;;36.04;33.16;99073.56;5001181;28;20041;-62
2022/09/04 08:59:17;;;;;;;3.03;1.30;;;;;;;34.98;34.70;99071.28;5003977;28;20022;-63
2022/09/04 09:02:07;;;;;;;1.35;0.95;;;;;;;35.47;34.01;99062.53;4997431;28;20022;-62
2022/09/04 09:05:08;;;;;;;1.25;0.82;;;;;;;34.69;35.86;99078.94;5005517;28;20464;-62
2022/09/04 09:07:59;;;;;;;1.17;0.80;;;;;;;33.72;36.88;99079.88;4992242;28;20030;-62
2022/09/04 09:10:47;;;;;;;1.30;0.70;;;;;;;35.55;34.97;99070.00;4984741;28;20511;-62
2022/09/04 09:13:28;;;;;;;1.75;0.80;;;;;;;37.01;32.54;99068.00;4988589;28;20030;-62
2022/09/04 09:16:02;;;;;;;1.52;0.88;;;;;;;38.72;29.68;99072.72;4999723;28;20034;-62
2022/09/04 09:19:09;;;;;;;1.23;1.00;;;;;;;35.66;33.17;99070.28;4988618;28;20046;-62
2022/09/04 09:21:46;;;;;;;1.10;0.80;;;;;;;33.05;37.23;99074.41;4979973;28;20026;-63
2022/09/04 09:24:23;;;;;;;1.27;0.90;;;;;;;31.13;40.93;99068.41;4984833;28;20032;-63
2022/09/04 09:27:10;;;;;;;1.90;0.90;;;;;;;29.66;43.88;99072.78;4989512;28;20037;-62
2022/09/04 09:29:45;;;;;;;2.08;0.70;;;;;;;29.77;43.54;99067.72;5005535;28;20033;-62
2022/09/04 09:32:22;;;;;;;1.20;0.60;;;;;;;28.99;45.39;99068.16;4987531;28;20096;-60
2022/09/04 09:35:05;;;;;;;1.00;0.70;;;;;;;31.56;40.59;99059.88;4988792;28;20033;-63
2022/09/04 09:38:05;;;;;;;1.45;0.80;;;;;;;35.06;34.74;99061.06;5004807;28;20026;-62
2022/09/04 09:41:12;;;;;;;2.13;0.90;;;;;;;34.75;34.18;99064.63;4990076;28;20026;-64
2022/09/04 09:44:03;;;;;;;2.28;0.63;;;;;;;35.33;33.73;99056.56;4911775;29;20036;-62
2022/09/04 09:46:44;;;;;;;1.70;0.50;;;;;;;37.00;31.83;99060.75;5001353;28;20401;-61
2022/09/04 09:49:25;;;;;;;1.67;0.60;;;;;;;38.08;29.48;99058.56;4987924;28;20029;-62
2022/09/04 09:52:12;;;;;;;1.35;0.70;;;;;;;37.91;29.89;99062.75;4987834;28;20421;-60
2022/09/04 09:54:59;;;;;;;1.83;0.63;;;;;;;35.95;32.10;99059.72;5003425;28;20040;-62
2022/09/04 09:58:00;;;;;;;2.05;0.70;;;;;;;37.82;29.91;99050.88;4990660;28;20044;-61
2022/09/04 10:00:45;;;;;;;3.10;0.70;;;;;;;37.62;29.89;99050.16;4984105;28;20474;-63
2022/09/04 10:03:38;;;;;;;0.70;0.60;;;;;;;38.29;29.00;99049.56;4985695;28;20152;-61
2022/09/04 10:06:38;;;;;;;0.75;0.75;;;;;;;37.10;30.68;99057.34;5006074;28;20033;-63
2022/09/04 10:09:33;;;;;;;1.95;0.70;;;;;;;37.33;30.55;99045.22;4982591;28;20053;-61
2022/09/04 10:12:21;;;;;;;2.67;0.80;;;;;;;36.41;31.03;99045.84;4987954;28;20168;-62
2022/09/04 10:15:09;;;;;;;3.50;0.80;;;;;;;35.92;32.26;99054.78;4978547;28;20309;-62
2022/09/04 10:18:12;;;;;;;0.85;0.63;;;;;;;37.58;30.14;99040.03;5000859;28;20362;-62
2022/09/04 10:20:59;;;;;;;1.20;0.60;;;;;;;34.76;33.08;99049.38;4986035;28;20060;-62
2022/09/04 10:24:05;;;;;;;3.45;0.52;;;;;;;37.34;30.01;99049.69;4980457;28;22445;-62
2022/09/04 10:27:14;;;;;;;1.33;0.50;;;;;;;39.04;28.08;99043.19;5002257;28;20603;-62
2022/09/04 10:30:00;;;;;;;4.00;1.00;;;;;;;37.56;29.53;99040.41;4963990;28;20037;-62
2022/09/04 10:32:46;;;;;;;1.10;0.70;;;;;;;34.96;32.29;99037.09;4998871;28;20092;-62
2022/09/04 10:35:51;;;;;;;1.65;0.55;;;;;;;31.76;36.39;99035.09;5005963;28;20026;-63
2022/09/04 10:40:34;;;;;;;1.75;0.80;;;;;;;30.62;39.19;99037.41;5005157;28;20034;-62
2022/09/04 10:41:37;;;;;;;2.10;0.70;;;;;;;30.52;39.73;99040.56;4999569;28;20116;-62
2022/09/04 10:44:25;;;;;;;0.90;0.60;;;;;;;32.97;35.83;99033.25;4989310;28;20037;-62
2022/09/04 10:47:09;;;;;;;1.50;0.88;;;;;;;36.71;30.43;99032.00;4981483;28;20022;-62
2022/09/04 10:49:50;;;;;;;2.30;1.20;;;;;;;37.39;29.20;99036.06;4990489;28;20049;-62
2022/09/04 10:52:42;;;;;;;1.65;0.65;;;;;;;38.86;27.77;99034.53;4987128;28;20037;-62
2022/09/04 10:55:37;;;;;;;2.25;0.70;;;;;;;35.76;30.94;99043.56;4979630;28;20057;-62
2022/09/04 10:58:24;;;;;;;0.70;0.55;;;;;;;34.80;32.43;99034.25;4998417;28;20569;-62
2022/09/04 11:01:14;;;;;;;1.00;0.50;;;;;;;36.57;29.96;99035.31;4985562;28;20106;-62
2022/09/04 11:03:43;;;;;;;1.52;0.80;;;;;;;37.53;28.35;99029.06;5001131;28;20465;-62
2022/09/04 11:06:56;;;;;;;1.27;0.90;;;;;;;39.53;25.66;99037.19;4987102;28;20030;-62
2022/09/04 11:09:41;;;;;;;0.68;0.40;;;;;;;39.27;24.35;99029.66;4959296;28;20042;-63
2022/09/04 11:12:39;;;;;;;0.95;0.50;;;;;;;39.36;24.37;99029.38;4986725;28;20038;-63
2022/09/04 11:15:20;;;;;;;2.10;0.65;;;;;;;39.65;24.53;99027.59;4974953;28;20407;-62
2022/09/04 11:18:04;;;;;;;2.25;0.50;;;;;;;39.61;24.91;99032.41;4985034;28;20034;-62
2022/09/04 11:21:01;;;;;;;1.30;0.50;;;;;;;38.70;24.87;99010.09;5002476;28;20065;-62
2022/09/04 11:23:52;;;;;;;1.17;0.50;;;;;;;37.55;26.38;99015.38;4985356;28;20120;-62
2022/09/04 11:26:56;;;;;;;5.40;0.68;;;;;;;38.62;24.99;99018.88;4988220;28;20072;-62
2022/09/04 11:29:43;;;;;;;2.25;0.50;;;;;;;37.10;26.82;99017.84;4965119;28;20137;-61
2022/09/04 11:32:14;;;;;;;0.70;0.60;;;;;;;38.19;26.61;99005.03;5000923;28;20109;-61
2022/09/04 11:34:59;;;;;;;0.98;0.50;;;;;;;39.10;26.36;99007.69;5001885;28;20050;-61
2022/09/04 11:37:37;;;;;;;1.27;0.50;;;;;;;39.77;25.82;99000.94;4987358;28;21054;-62
2022/09/04 11:40:24;;;;;;;0.57;0.45;;;;;;;40.46;24.31;99000.13;4982342;28;20037;-62
2022/09/04 11:42:50;;;;;;;;;;;;;;;38.70;25.78;99012.94;5001735;28;20432;-62
2022/09/04 11:45:25;;;;;;;0.67;0.30;;;;;;;40.85;24.08;99005.09;5004874;28;20045;-63
2022/09/04 11:47:55;;;;;;;0.68;0.50;;;;;;;40.77;23.17;99006.31;4989110;28;20030;-62
2022/09/04 11:51:00;;;;;;;0.47;0.43;;;;;;;41.49;23.12;99013.69;4983236;28;20030;-62
2022/09/04 11:53:31;;;;;;;0.40;0.40;;;;;;;39.66;24.48;99000.88;4984728;28;20026;-62
2022/09/04 11:56:18;;;;;;;0.90;0.60;;;;;;;38.80;25.25;99005.75;5000009;28;20033;-62
2022/09/04 11:58:43;;;;;;;1.70;0.40;;;;;;;37.45;26.58;99008.34;5001954;28;20018;-62
2022/09/04 12:01:30;;;;;;;0.50;0.50;;;;;;;34.77;29.82;99000.41;4982173;28;20628;-62
2022/09/04 12:04:39;;;;;;;0.95;0.45;;;;;;;32.07;33.85;99007.56;5001986;28;20347;-62
2022/09/04 12:07:46;;;;;;;0.85;0.47;;;;;;;32.38;33.38;99011.91;4987906;28;20025;-62
2022/09/04 12:10:22;;;;;;;1.57;0.50;;;;;;;34.99;30.60;99005.44;4967843;28;20038;-62
2022/09/04 12:12:47;;;;;;;1.15;0.50;;;;;;;36.45;28.12;99010.09;5006173;28;20272;-62
2022/09/04 12:15:39;;;;;;;4.07;1.45;;;;;;;36.80;27.68;99009.19;4990794;28;20037;-61
2022/09/04 12:18:43;;;;;;;3.10;0.52;;;;;;;35.92;28.54;99002.13;4992579;28;20030;-62
2022/09/04 12:21:34;;;;;;;1.30;0.40;;;;;;;35.12;30.05;99007.00;4987902;28;20597;-62
2022/09/04 12:24:21;;;;;;;0.73;0.60;;;;;;;35.04;29.88;99004.34;5002899;28;20045;-62
2022/09/04 12:27:16;;;;;;;0.67;0.50;;;;;;;34.44;30.43;99010.75;4992958;28;20035;-64
2022/09/04 12:29:49;;;;;;;1.65;0.40;;;;;;;33.10;31.80;99014.50;5017800;28;20469;-62
2022/09/04 12:32:34;;;;;;;1.50;0.80;;;;;;;32.16;32.88;99015.06;4994073;28;20030;-61
2022/09/04 12:35:09;;;;;;;1.33;0.65;;;;;;;30.52;35.25;99007.03;4990512;28;20030;-61
2022/09/04 12:38:08;;;;;;;0.60;0.60;;;;;;;29.81;36.54;99008.16;5010477;28;20037;-61
2022/09/04 12:41:00;;;;;;;1.13;0.77;;;;;;;32.63;33.05;99007.25;4996398;28;20029;-61
2022/09/04 12:43:44;;;;;;;0.73;0.50;;;;;;;33.80;31.15;99004.00;4995273;28;20026;-61
2022/09/04 12:46:38;;;;;;;0.98;0.80;;;;;;;34.78;30.52;99002.88;4991358;28;20052;-61
2022/09/04 12:49:26;;;;;;;1.58;0.70;;;;;;;34.98;30.18;99006.63;4993760;28;20018;-61
2022/09/04 12:52:09;;;;;;;1.45;0.63;;;;;;;34.35;30.86;99010.09;4992721;28;20037;-62
2022/09/04 12:55:04;;;;;;;0.43;0.43;;;;;;;33.16;32.72;99013.09;4990722;28;20231;-63
2022/09/04 12:57:48;;;;;;;1.65;0.63;;;;;;;34.92;29.63;99016.47;4996049;28;20382;-63